Terminal Aerodrome Forecast
Issued by NWS Charleston, WV

Current Version | Previous Version | Text Only | Print | Product List | Glossary Off
Versions: 1 2 3 4 5 6 7 8 9 10 11 12 13 14 15 16 17 18 19 20 21 22 23 24 25 26 27 28 29 30 31

673
FTUS41 KRLX 300258 AAB
TAFHTS
TAF AMD
KHTS 300258Z 3003/3024 00000KT 2SM RA BR BKN004 BKN010 OVC015
      TEMPO 3003/3005 4SM SHRA SCT004 OVC010
     FM300500 VRB03KT 4SM BR OVC006
     FM301500 00000KT 6SM -SHRA BKN014
     FM302300 00000KT P6SM SCT100=

USA.gov is the U.S. government's official web portal to all federal, state and local government web resources and services.